Briggs, TX (78608)

8:36 PM CDT on August 30, 2015 (GMT -0500)
KK2Z-13, Burnet County TX | | Change Station
CLOSE
Current Station
Personal Weather Station
Location: Burnet, TX
Elevation: 1276 ft
Nearby Weather Stations

Elev 1276 ft 30.88 °N, 98.10 °W | Updated 8 minutes ago

Mostly Cloudy
Mostly Cloudy
75.4 °F
Feels Like 77 °F
N
1.0
Wind Variable Wind from North
Gusts 6.0 mph

Today
High -- | Low -- °F
--% Chance of Precip.
Yesterday
High -- | Low -- °F
Precip. -- in
7:06 AM 7:57 PM
Full, 97% visible
Pressure 29.95 in
Visibility 8.0 miles
Clouds Mostly Cloudy 12000 ft
Heat Index 77 °F
Dew Point 65 °F
Humidity 71%
Rainfall 0.00 in
Snow Depth Not available.
UV 0 out of 12
Pollen 6.30 out of 12
Air Quality Not available.
Flu Activity Not available.
METAR KGRK 310058Z AUTO 13006KT 8SM BKN120 25/19 A2998 RMK AO2 RAE22 TSE08 SLP142 P0000 T02450192
Pressure 29.95 in
Visibility 8.0 miles
Clouds Mostly Cloudy 12000 ft
Heat Index 77 °F
Dew Point 65 °F
Humidity 71%
Rainfall 0.00 in
Snow Depth Not available.
UV 0 out of 12
Pollen 6.30 out of 12
Air Quality Not available.
Flu Activity Not available.
METAR KGRK 310058Z AUTO 13006KT 8SM BKN120 25/19 A2998 RMK AO2 RAE22 TSE08 SLP142 P0000 T02450192
Nowcast | as of 8:09 PM CDT on August 30, 2015

A few sprinkles or light rain will continue for the next hour across the region. All the thunderstorms have dissipated and the light rain should decrease and most likely end around 9 PM. Any additional rainfall will be light with amounts expected to be 1/10 of an inch or less.

×

10-Day Weather Forecast

×

Almanac

Astronomy

Aug. 30, 2015 Rise Set
Actual Time
Civil Twilight
Nautical Twilight
Astronomical Twilight
Moon
Length of Visible Light
Length of Day
Tomorrow will be .
, % of the Moon is Illuminated

Today's Extremes

State Highs State Lows

Community

WunderPhotos

Upload Photos

1,851,145 photos uploaded!

WunderBlogs® & News

Nearby

Air Quality

  Air Quality AQ Index Pollutant
Not available.

Snow Depth

Station Depth Elevation

Earthquake Activity

City Distance Mag. Time & Date
Minimum magnitude displayed is 2.5.

Coastal Water Temperatures

Place Temperature

Stations

Nearby Weather Stations

Station Location Temp. Windchill Dew Point Humidity Wind Precip. Elev Updated Type